Latest Coastal Weather Observations for Geraldton Airport

IDW60701

Issued at 4:55 am WST Friday 28 November 2014 (issued every 10 minutes, with the page automatically refreshed every 10 minutes)

About coastal observations | Map of coastal stations | Coastal observations for WA | Marine services | Other Formats
Station Details ID: 008315 Name: GERALDTON AIRPORT Lat: -28.80 Lon: 114.70 Height: 29.7 m
Data from the previous 72 hours. | See also: Recent months at Geraldton Airport
Date/Time
WST
Temp

°C
Wind Pressure Rain
since 9am
mm
Weather Cloud Vis
km
Sea
Height
m
Swell
Dir
 
Speed
knots
Gust
knots
hPa Trend Height
m
Period
s
Dir
28/04:30am 21.5 N 1 3 1010.0 - 0.0 - Cloudy 10 - - - -
28/04:00am 21.5 N 3 5 1009.8 - 0.0 - Cloudy 10 - - - -
28/03:30am 21.4 N 4 5 1009.7 - 0.0 - Cloudy 10 - - - -
28/03:00am 21.4 N 4 5 1009.7 - 0.0 - Cloudy 10 - - - -
28/02:30am 21.3 N 2 4 1009.7 - 0.0 - Cloudy 10 - - - -
28/02:00am 21.2 N 5 6 1009.6 - 0.0 - Cloudy 10 - - - -
28/01:30am 21.0 N 6 7 1009.6 - 0.0 - Cloudy 10 - - - -
28/01:00am 21.0 NNE 5 5 1009.6 - 0.0 - Partly cloudy 10 - - - -
28/12:30am 20.8 NNE 4 5 1009.8 - 0.0 - Partly cloudy 10 - - - -
28/12:00am 20.6 N 5 6 1009.8 - 0.0 - Mostly cloudy 10 - - - -
 
Date/Time
WST
Temp

°C
Wind Pressure Rain
since 9am
mm
Weather Cloud Vis
km
Sea
Height
m
Swell
Dir
 
Speed
knots
Gust
knots
hPa Trend Height
m
Period
s
Dir
27/11:30pm 19.8 NNE 4 5 1010.1 - 0.0 - Partly cloudy 10 - - - -
27/11:00pm 19.6 NE 5 6 1010.1 - 0.0 - Partly cloudy 10 - - - -
27/10:58pm 19.6 NE 5 5 1010.1 - 0.0 - Partly cloudy 10 - - - -
27/10:41pm 20.2 NNE 4 5 1010.1 - 0.0 - Partly cloudy 10 - - - -
27/10:30pm 19.6 N 4 5 1010.2 - 0.0 - Partly cloudy 10 - - - -
27/10:00pm 18.9 NNE 6 6 1009.8 - 0.0 - Partly cloudy 10 - - - -
27/09:30pm 19.0 CALM 0 0 1009.5 - 0.0 - - 10 - - - -
27/09:00pm 20.0 CALM 0 0 1009.7 F 0.0 Haze Mostly clear 15 - - - -
27/08:30pm 20.7 SSW 4 4 1009.7 - 0.0 - Mostly clear 10 - - - -
27/08:00pm 20.8 SSW 5 7 1009.4 - 0.0 - Mostly clear 10 - - - -
27/07:30pm 21.7 WSW 7 9 1009.3 - 0.0 - Mostly clear 10 - - - -
27/07:00pm 22.2 WSW 7 10 1009.1 - 0.0 - Partly cloudy 10 - - - -
27/06:30pm 22.9 WSW 8 11 1008.9 - 0.0 - Mostly clear 10 - - - -
27/06:00pm 23.5 W 9 11 1008.6 F 0.0 Haze Mostly clear 20 - - - -
27/05:30pm 24.4 WSW 11 15 1008.4 - 0.0 - Mostly clear 10 - - - -
27/05:00pm 24.1 W 11 14 1008.4 - 0.0 - Mostly clear 10 - - - -
27/04:30pm 25.4 WSW 11 16 1008.4 - 0.0 - Mostly clear 10 - - - -
27/04:00pm 25.1 W 12 18 1008.5 - 0.0 - Partly cloudy 10 - - - -
27/03:30pm 25.8 W 11 17 1008.8 - 0.0 - Partly cloudy 10 - - - -
27/03:00pm 26.0 W 12 16 1008.8 R 0.0 Haze Partly cloudy 16 - - - -
27/02:30pm 25.7 W 12 17 1009.1 - 0.0 - Partly cloudy 10 - - - -
27/02:00pm 26.4 W 13 18 1009.0 - 0.0 - Mostly clear 10 - - - -
27/01:30pm 26.2 W 13 17 1009.1 - 0.0 - Mostly clear 10 - - - -
27/01:00pm 26.0 WSW 12 18 1009.3 - 0.0 - Mostly clear 10 - - - -
27/12:30pm 27.0 W 15 21 1009.4 - 0.0 - Mostly clear 10 - - - -
27/12:00pm 26.1 W 15 20 1009.5 R 0.0 Haze Partly cloudy 20 - - - -
27/11:30am 26.3 W 14 19 1009.6 - 0.0 - Mostly clear 10 - - - -
27/11:00am 27.1 W 14 18 1009.7 - 0.0 - Mostly clear 10 - - - -
27/10:30am 26.3 WNW 15 23 1009.9 - 0.0 - Mostly clear 10 - - - -
27/10:00am 26.4 NW 15 20 1010.0 - 0.0 - Mostly clear 10 - - - -
27/09:30am 26.0 NW 15 20 1010.2 - 0.0 - Partly cloudy 10 - - - -
27/09:00am 25.6 WNW 13 16 1010.3 R 0.0 Haze Mostly cloudy 25 - - - -
27/08:30am 25.3 NW 13 19 1010.5 - 0.0 - Partly cloudy 10 - - - -
27/08:00am 24.6 NW 12 16 1010.4 - 0.0 - Mostly clear 10 - - - -
27/07:30am 24.6 NW 13 17 1010.0 - 0.0 - Mostly clear 10 - - - -
27/07:00am 24.7 NW 14 19 1009.6 - 0.0 - - 10 - - - -
27/06:30am 23.8 N 12 14 1009.3 - 0.0 - - 10 - - - -
27/06:00am 22.3 NW 11 16 1009.0 R 0.0 Fine Partly cloudy 30 - - - -
27/05:30am 21.7 NNE 11 15 1008.3 - 0.0 - - 10 - - - -
27/05:00am 21.4 NNE 15 18 1007.8 - 0.0 - - 10 - - - -
27/04:30am 21.9 NNE 18 23 1007.4 - 0.0 - - 10 - - - -
27/04:00am 22.6 NNE 18 22 1007.4 - 0.0 - - 10 - - - -
27/03:30am 22.7 NNE 19 24 1007.2 - 0.0 - - 10 - - - -
27/03:00am 22.9 NE 21 26 1007.2 - 0.0 - Mostly clear 10 - - - -
27/02:30am 23.3 NE 21 28 1007.2 - 0.0 - - 10 - - - -
27/02:00am 23.2 NE 18 25 1007.7 - 0.0 - Partly cloudy 10 - - - -
27/01:30am 23.4 NNE 16 19 1008.1 - 0.0 - - 10 - - - -
27/01:00am 23.2 NNE 16 19 1008.3 - 0.0 - - 10 - - - -
27/12:30am 23.4 NNE 16 21 1008.3 - 0.0 - - 10 - - - -
27/12:00am 23.5 NNE 17 21 1008.6 - 0.0 - - 10 - - - -
 
Date/Time
WST
Temp

°C
Wind Pressure Rain
since 9am
mm
Weather Cloud Vis
km
Sea
Height
m
Swell
Dir
 
Speed
knots
Gust
knots
hPa Trend Height
m
Period
s
Dir
26/11:30pm 23.6 NNE 12 17 1009.0 - 0.0 - - 10 - - - -
26/11:00pm 23.9 NE 13 15 1009.4 - 0.0 - Partly cloudy 10 - - - -
26/10:30pm 25.0 ENE 11 13 1009.6 - 0.0 - Cloudy 10 - - - -
26/10:00pm 25.0 NNE 11 14 1010.1 - 0.0 - Partly cloudy 10 - - - -
26/09:30pm 25.2 NNE 11 15 1010.2 - 0.0 - Partly cloudy 10 - - - -
26/09:00pm 23.8 NNW 4 6 1010.2 - 0.0 - Partly cloudy 10 - - - -
26/08:41pm 23.9 N 7 9 1010.2 - 0.0 - Partly cloudy 8 - - - -
26/08:30pm 24.0 N 8 10 1010.1 - 0.0 - Partly cloudy 10 - - - -
26/08:00pm 24.3 NNW 7 10 1009.6 - 0.0 - Cloudy 10 - - - -
26/07:30pm 24.6 NW 7 9 1009.4 - 0.0 - Partly cloudy 10 - - - -
26/07:00pm 25.5 NNW 8 10 1009.3 - 0.0 - Partly cloudy 10 - - - -
26/06:30pm 27.8 N 8 13 1008.8 - 0.0 - - 10 - - - -
26/06:00pm 27.5 NNE 5 8 1008.3 - 0.0 - - 10 - - - -
26/05:30pm 26.6 N 2 6 1008.3 - 0.0 - - 10 - - - -
26/05:00pm 26.8 WSW 11 16 1007.6 - 0.0 - - 10 - - - -
26/04:30pm 27.6 WSW 8 11 1007.3 - 0.0 - - 10 - - - -
26/04:00pm 27.4 WNW 16 22 1006.2 - 0.0 - - 10 - - - -
26/03:30pm 28.0 WNW 17 24 1006.1 - 0.0 - - 10 - - - -
26/03:11pm 28.0 WNW 19 29 1006.2 - 0.0 - Mostly clear 10 - - - -
26/03:00pm 28.1 WNW 23 30 1005.7 R 0.0 Haze Partly cloudy 25 - - - -
26/02:30pm 28.0 WNW 23 29 1005.5 - 0.0 - Mostly clear 10 - - - -
26/02:00pm 28.3 WNW 21 25 1006.3 - 0.0 - Mostly clear 10 - - - -
26/01:30pm 28.6 WNW 20 24 1006.4 - 0.0 - Mostly clear 10 - - - -
26/01:00pm 28.9 WNW 22 28 1006.5 - 0.0 - - 10 - - - -
26/12:30pm 28.3 WNW 22 28 1006.4 - 0.0 - - 10 - - - -
26/12:00pm 28.8 WNW 21 27 1006.4 R 0.0 Haze Mostly cloudy 25 - - - -
26/11:30am 28.9 WNW 21 25 1006.5 - 0.0 - - 10 - - - -
26/11:00am 32.4 NW 19 23 1006.2 - 0.0 - - 10 - - - -
26/10:49am 33.5 NW 20 25 1006.1 - 0.0 - - 10 - - - -
26/10:30am 36.9 N 21 27 1006.2 - 0.0 - - 10 - - - -
26/09:58am 36.0 N 21 31 1006.3 - 0.0 - - 10 - - - -
26/09:30am 34.1 NNE 27 34 1006.2 - 0.0 - - 10 - - - -
26/09:10am 34.0 NNE 26 37 1006.2 - 0.0 - - 10 - - - -
26/09:00am 34.0 NNE 27 35 1006.2 F 0.0 Dust Mostly cloudy 30 - - - -
26/08:50am 32.7 NNE 26 36 1006.2 - 0.0 - - 10 - - - -
26/08:30am 33.2 NNE 29 36 1006.1 - 0.0 - - 10 - - - -
26/08:17am 32.6 NNE 27 37 1006.3 - 0.0 - - 10 - - - -
26/08:00am 31.0 NNE 29 35 1006.5 - 0.0 - - 10 - - - -
26/07:28am 30.3 NNE 25 35 1006.6 - 0.0 - - 10 - - - -
26/07:00am 30.6 NNE 27 36 1006.4 - 0.0 - - 10 - - - -
26/06:30am 28.5 NE 24 29 1006.4 - 0.0 - - 10 - - - -
26/06:00am 28.2 NE 23 30 1006.3 F 0.0 Distant precip. Mostly cloudy 30 - - - -
26/05:35am 28.0 NE 21 31 1006.4 - 0.0 - - 10 - - - -
26/05:30am 27.9 NE 21 28 1006.4 - 0.0 - - 10 - - - -
26/05:00am 28.1 NNE 22 30 1006.2 - 0.0 - - 10 - - - -
26/04:30am 28.4 NNE 24 31 1006.0 - 0.0 - - 10 - - - -
26/04:00am 28.5 NE 25 34 1005.7 - 0.0 - - 10 - - - -
26/03:30am 28.4 NE 25 32 1005.8 - 0.0 - - 10 - - - -
26/03:00am 28.2 NE 21 27 1005.9 - 0.0 - - 10 - - - -
26/02:30am 27.8 NE 17 22 1006.2 - 0.0 - - 10 - - - -
26/02:00am 27.9 NE 15 20 1006.3 - 0.0 - - 10 - - - -
26/01:30am 27.5 ENE 14 19 1006.5 - 0.0 - - 10 - - - -
26/01:00am 27.8 ENE 15 20 1006.8 - 0.0 - - 10 - - - -
26/12:30am 28.1 ENE 16 20 1007.1 - 0.0 - - 10 - - - -
26/12:00am 28.4 ENE 17 25 1007.4 - 0.0 - - 10 - - - -
 
Date/Time
WST
Temp

°C
Wind Pressure Rain
since 9am
mm
Weather Cloud Vis
km
Sea
Height
m
Swell
Dir
 
Speed
knots
Gust
knots
hPa Trend Height
m
Period
s
Dir
25/11:30pm 28.3 ENE 18 25 1007.5 - 0.0 - - 10 - - - -
25/11:00pm 28.0 ENE 17 20 1007.5 - 0.0 - - 10 - - - -
25/10:30pm 28.0 E 16 22 1007.3 - 0.0 - - 10 - - - -
25/10:00pm 28.7 E 18 27 1007.3 - 0.0 - - 10 - - - -
25/09:30pm 28.0 E 14 20 1007.8 - 0.0 - - 10 - - - -
25/09:00pm 28.0 ESE 14 19 1007.9 - 0.0 - - 10 - - - -
25/08:30pm 28.4 ESE 15 23 1007.6 - 0.0 - - 10 - - - -
25/08:00pm 29.2 ESE 18 23 1007.3 - 0.0 - - 10 - - - -
25/07:30pm 29.9 ESE 20 30 1006.7 - 0.0 - - 10 - - - -
25/07:28pm 29.8 ESE 20 30 1006.8 - 0.0 - - 10 - - - -
25/07:00pm 31.1 ESE 19 26 1006.7 - 0.0 - - 10 - - - -
25/06:34pm 33.5 ESE 16 28 1006.1 - 0.0 - Partly cloudy 10 - - - -
25/06:30pm 32.5 ESE 13 17 1005.6 - 0.0 - Partly cloudy 10 - - - -
25/06:16pm 31.9 S 23 27 1004.1 - 0.0 - Partly cloudy 10 - - - -
25/06:00pm 31.9 SSE 12 16 1005.6 - 0.0 - Mostly cloudy 10 - - - -
25/05:30pm 29.9 N 9 12 1007.4 - 0.0 Thunder Mostly clear 10 - - - -
25/05:17pm 29.4 SSE 13 17 1006.3 - 0.0 Thunder Mostly clear 10 - - - -
25/05:00pm 29.3 SSE 19 26 1005.7 - 0.0 - Mostly clear 10 - - - -
25/04:30pm 30.7 SSE 21 27 1005.3 - 0.0 - Mostly clear 10 - - - -
25/04:00pm 32.0 S 23 31 1005.4 - 0.0 - Mostly clear 10 - - - -
25/03:52pm 32.7 S 23 33 1005.5 - 0.0 - Mostly clear 10 - - - -
25/03:30pm 32.8 S 24 31 1005.5 - 0.0 - Mostly clear 10 - - - -
25/03:09pm 32.2 S 24 34 1006.1 - 0.0 - Mostly clear 10 - - - -
25/03:00pm 32.8 S 23 32 1006.4 F 0.0 Distant precip. Mostly cloudy 25 - - - -
25/02:51pm 32.1 S 23 31 1006.5 - 0.0 - Mostly clear 10 - - - -
25/02:30pm 34.0 S 22 29 1006.7 - 0.0 - - 10 - - - -
25/02:00pm 34.8 S 20 25 1007.2 - 0.0 - - 10 - - - -
25/01:30pm 35.3 S 18 24 1007.3 - 0.0 - - 10 - - - -
25/01:00pm 35.2 SSW 16 21 1007.6 - 0.0 - - 10 - - - -
25/12:30pm 39.2 ENE 11 18 1007.9 - 0.0 - - 10 - - - -
25/12:00pm 39.5 NE 14 21 1008.2 F 0.0 Fine Partly cloudy 30 - - - -
25/11:30am 38.7 ENE 14 21 1008.6 - 0.0 - - 10 - - - -
25/11:00am 38.5 E 14 20 1009.3 - 0.0 - - 10 - - - -
25/10:47am 38.1 E 15 25 1009.6 - 0.0 - - 10 - - - -
25/10:30am 37.8 ENE 16 23 1009.9 - 0.0 - - 10 - - - -
25/10:16am 37.5 E 16 26 1010.2 - 0.0 - - 10 - - - -
25/10:00am 36.3 ENE 18 25 1010.4 - 0.0 - - 10 - - - -
25/09:30am 36.0 ENE 18 25 1010.7 - 0.0 - - 10 - - - -
25/09:00am 34.1 E 19 25 1010.8 F 0.0 Fine Mostly clear 35 - - - -
25/08:30am 32.1 E 19 24 1011.3 - 0.0 - - 10 - - - -
25/08:00am 30.2 E 13 22 1011.8 - 0.0 - - 10 - - - -
25/07:30am 26.8 E 7 14 1012.2 - 0.0 - - 10 - - - -
25/07:00am 25.1 SSE 10 12 1012.0 - 0.0 - - 10 - - - -
25/06:30am 23.2 ESE 11 15 1011.9 - 0.0 - - 10 - - - -
25/06:27am 22.9 ESE 11 15 1011.9 - 0.0 - - 10 - - - -
25/06:00am 17.7 S 6 8 1011.9 F 0.0 Fine Mostly clear 35 - - - -
25/05:30am 13.4 S 6 7 1012.2 - 0.0 - - 10 - - - -
25/05:00am 13.9 SSE 8 10 1012.2 - 0.0 - - 10 - - - -

Other Formats:

Comma delimited format used in spreadsheet applications
http://www.bom.gov.au/fwo/IDW60701/IDW60701.94403.axf

JavaScript Object Notation format (JSON) in row-major order
http://www.bom.gov.au/fwo/IDW60701/IDW60701.94403.json